createdAt,value
2017-10-16T00:00:26.439Z,14.96
2017-10-16T00:01:26.877Z,14.89
2017-10-16T00:02:27.302Z,14.89
2017-10-16T00:03:48.896Z,14.86
2017-10-16T00:04:28.162Z,14.86
2017-10-16T00:05:28.608Z,14.88
2017-10-16T00:06:29.032Z,14.82
2017-10-16T00:07:29.477Z,14.79
2017-10-16T00:08:29.899Z,14.77
2017-10-16T00:09:51.494Z,14.82
2017-10-16T00:10:30.764Z,14.79
2017-10-16T00:11:31.202Z,14.82
2017-10-16T00:12:31.629Z,14.79
2017-10-16T00:13:32.076Z,14.69
2017-10-16T00:14:32.488Z,14.72
2017-10-16T00:15:54.093Z,14.70
2017-10-16T00:16:33.351Z,14.70
2017-10-16T00:17:33.802Z,14.72
2017-10-16T00:18:34.225Z,14.72
2017-10-16T00:19:34.688Z,14.65
2017-10-16T00:20:35.089Z,14.63
2017-10-16T00:21:56.680Z,14.66
2017-10-16T00:22:35.949Z,14.70
2017-10-16T00:23:36.382Z,14.65
2017-10-16T00:24:36.823Z,14.66
2017-10-16T00:25:37.244Z,14.65
2017-10-16T00:26:37.695Z,14.65
2017-10-16T00:27:59.274Z,14.66
2017-10-16T00:28:38.547Z,14.66
2017-10-16T00:29:38.976Z,14.66
2017-10-16T00:30:39.437Z,14.66
2017-10-16T00:31:39.847Z,14.50
2017-10-16T00:32:40.282Z,14.60
2017-10-16T00:34:01.872Z,14.53
2017-10-16T00:34:41.141Z,14.60
2017-10-16T00:35:41.573Z,14.50
2017-10-16T00:36:42.008Z,14.60
2017-10-16T00:37:42.473Z,14.62
2017-10-16T00:38:42.883Z,14.55
2017-10-16T00:40:04.469Z,14.53
2017-10-16T00:40:43.729Z,14.54
2017-10-16T00:41:44.164Z,14.53
2017-10-16T00:42:44.594Z,14.53
2017-10-16T00:43:45.042Z,14.47
2017-10-16T00:44:45.461Z,14.55
2017-10-16T00:46:07.045Z,14.55
2017-10-16T00:46:46.321Z,14.50
2017-10-16T00:47:46.757Z,14.50
2017-10-16T00:48:47.185Z,14.51
2017-10-16T00:49:47.638Z,14.45
2017-10-16T00:50:48.058Z,14.48
2017-10-16T00:52:09.673Z,14.45
2017-10-16T00:52:48.928Z,14.44
2017-10-16T00:53:49.344Z,14.45
2017-10-16T00:54:49.784Z,14.45
2017-10-16T00:55:50.208Z,14.47
2017-10-16T00:56:50.652Z,14.43
2017-10-16T00:58:12.234Z,14.37
2017-10-16T00:58:51.516Z,14.41
2017-10-16T00:59:51.944Z,14.36
2017-10-16T01:00:52.377Z,14.37
2017-10-16T01:01:52.810Z,14.32
2017-10-16T01:02:53.230Z,14.33
2017-10-16T01:04:14.834Z,14.43
2017-10-16T01:04:54.096Z,14.35
2017-10-16T01:05:54.551Z,14.35
2017-10-16T01:06:54.961Z,14.33
2017-10-16T01:07:55.391Z,14.37
2017-10-16T01:08:55.825Z,14.32
2017-10-16T01:10:17.424Z,14.29
2017-10-16T01:10:56.692Z,14.33
2017-10-16T01:11:57.121Z,14.36
2017-10-16T01:12:57.554Z,14.33
2017-10-16T01:13:57.983Z,14.35
2017-10-16T01:14:58.424Z,14.35
2017-10-16T01:16:20.011Z,14.29
2017-10-16T01:16:59.292Z,14.30
2017-10-16T01:17:59.713Z,14.22
2017-10-16T01:19:00.151Z,14.32
2017-10-16T01:20:00.579Z,14.25
2017-10-16T01:21:01.008Z,14.23
2017-10-16T01:22:22.602Z,14.25
2017-10-16T01:23:01.863Z,14.32
2017-10-16T01:24:02.310Z,14.23
2017-10-16T01:25:02.745Z,14.29
2017-10-16T01:26:03.166Z,14.28
2017-10-16T01:27:03.613Z,14.17
2017-10-16T01:28:25.188Z,14.30
2017-10-16T01:29:04.454Z,14.18
2017-10-16T01:30:04.892Z,14.17
2017-10-16T01:31:05.319Z,14.28
2017-10-16T01:32:05.748Z,14.15
2017-10-16T01:33:06.179Z,14.26
2017-10-16T01:34:27.789Z,14.17
2017-10-16T01:35:07.046Z,14.18
2017-10-16T01:36:07.482Z,14.20
2017-10-16T01:37:07.917Z,14.08
2017-10-16T01:38:08.336Z,14.15
2017-10-16T01:39:08.783Z,14.08
2017-10-16T01:40:30.379Z,14.12
2017-10-16T01:41:09.639Z,14.08
2017-10-16T01:42:10.074Z,14.07
2017-10-16T01:43:10.496Z,14.12
2017-10-16T01:44:10.939Z,14.10
2017-10-16T01:45:11.364Z,14.05
2017-10-16T01:46:32.971Z,14.04
2017-10-16T01:47:12.238Z,14.00
2017-10-16T01:48:12.653Z,14.03
2017-10-16T01:49:13.095Z,14.03
2017-10-16T01:50:13.515Z,14.03
2017-10-16T01:51:13.947Z,13.89
2017-10-16T01:52:35.564Z,13.97
2017-10-16T01:53:14.814Z,13.95
2017-10-16T01:54:15.252Z,13.92
2017-10-16T01:55:15.670Z,13.93
2017-10-16T01:56:16.107Z,13.93
2017-10-16T01:57:16.547Z,13.86
2017-10-16T01:58:38.128Z,13.95
2017-10-16T01:59:17.403Z,13.85
2017-10-16T02:00:17.829Z,13.87
2017-10-16T02:01:18.266Z,13.86
2017-10-16T02:02:18.694Z,13.83
2017-10-16T02:03:19.126Z,13.79
2017-10-16T02:04:40.712Z,13.79
2017-10-16T02:05:19.980Z,13.75
2017-10-16T02:06:20.416Z,13.75
2017-10-16T02:07:20.855Z,13.77
2017-10-16T02:08:21.281Z,13.74
2017-10-16T02:09:21.709Z,13.81
2017-10-16T02:10:43.308Z,13.72
2017-10-16T02:11:22.573Z,13.77
2017-10-16T02:12:22.999Z,13.79
2017-10-16T02:13:23.434Z,13.74
2017-10-16T02:14:23.863Z,13.71
2017-10-16T02:15:24.300Z,13.71
2017-10-16T02:16:45.886Z,13.68
2017-10-16T02:17:25.160Z,13.68
2017-10-16T02:18:25.591Z,13.67
2017-10-16T02:19:26.028Z,13.72
2017-10-16T02:20:26.458Z,13.67
2017-10-16T02:21:26.887Z,13.71
2017-10-16T02:22:48.479Z,13.68
2017-10-16T02:23:27.742Z,13.70
2017-10-16T02:24:28.169Z,13.65
2017-10-16T02:25:28.607Z,13.67
2017-10-16T02:26:29.037Z,13.67
2017-10-16T02:27:29.469Z,13.68
2017-10-16T02:28:51.060Z,13.65
2017-10-16T02:29:30.337Z,13.65
2017-10-16T02:30:30.758Z,13.65
2017-10-16T02:31:31.191Z,13.67
2017-10-16T02:32:31.630Z,13.67
2017-10-16T02:33:32.063Z,13.60
2017-10-16T02:34:53.661Z,13.68
2017-10-16T02:35:32.917Z,13.71
2017-10-16T02:36:33.355Z,13.67
2017-10-16T02:37:33.776Z,13.67
2017-10-16T02:38:34.219Z,13.71
2017-10-16T02:39:34.649Z,13.65
2017-10-16T02:40:56.229Z,13.65
2017-10-16T02:41:35.506Z,13.68
2017-10-16T02:42:35.937Z,13.63
2017-10-16T02:43:36.371Z,13.63
2017-10-16T02:44:36.796Z,13.62
2017-10-16T02:45:37.239Z,13.65
2017-10-16T02:46:58.832Z,13.65
2017-10-16T02:47:38.085Z,13.56
2017-10-16T02:48:38.527Z,13.56
2017-10-16T02:49:38.958Z,13.67
2017-10-16T02:50:39.387Z,13.57
2017-10-16T02:51:39.811Z,13.57
2017-10-16T02:53:01.404Z,13.50
2017-10-16T02:53:40.674Z,13.57
2017-10-16T02:54:41.117Z,13.54
2017-10-16T02:55:41.536Z,13.52
2017-10-16T02:56:41.966Z,13.54
2017-10-16T02:57:42.400Z,13.49
2017-10-16T02:59:03.985Z,13.50
2017-10-16T02:59:43.266Z,13.46
2017-10-16T03:00:43.689Z,13.44
2017-10-16T03:01:44.139Z,13.44
2017-10-16T03:02:44.554Z,13.46
2017-10-16T03:03:44.979Z,13.44
2017-10-16T03:05:06.574Z,13.39
2017-10-16T03:05:45.842Z,13.42
2017-10-16T03:06:46.272Z,13.37
2017-10-16T03:07:46.709Z,13.39
2017-10-16T03:08:47.135Z,13.37
2017-10-16T03:09:47.571Z,13.41
2017-10-16T03:11:09.158Z,13.33
2017-10-16T03:11:48.427Z,13.37
2017-10-16T03:12:48.858Z,13.38
2017-10-16T03:13:49.288Z,13.41
2017-10-16T03:14:49.749Z,13.38
2017-10-16T03:15:50.151Z,13.39
2017-10-16T03:17:11.755Z,13.33
2017-10-16T03:17:51.011Z,13.31
2017-10-16T03:18:51.441Z,13.31
2017-10-16T03:19:51.878Z,13.31
2017-10-16T03:20:52.302Z,13.28
2017-10-16T03:21:52.740Z,13.28
2017-10-16T03:23:14.326Z,13.28
2017-10-16T03:23:53.606Z,13.33
2017-10-16T03:24:54.025Z,13.25
2017-10-16T03:25:54.454Z,13.31
2017-10-16T03:26:54.890Z,13.23
2017-10-16T03:27:55.318Z,13.20
2017-10-16T03:29:16.907Z,13.38
2017-10-16T03:29:56.192Z,13.25
2017-10-16T03:30:56.629Z,13.42
2017-10-16T03:31:57.035Z,13.23
2017-10-16T03:32:57.479Z,13.33
2017-10-16T03:33:57.900Z,13.38
2017-10-16T03:35:19.490Z,13.20
2017-10-16T03:35:58.764Z,13.39
2017-10-16T03:36:59.211Z,13.23
2017-10-16T03:37:59.622Z,13.27
2017-10-16T03:39:00.069Z,13.22
2017-10-16T03:40:00.496Z,13.35
2017-10-16T03:41:22.087Z,13.31
2017-10-16T03:42:01.349Z,13.35
2017-10-16T03:43:01.788Z,13.33
2017-10-16T03:44:02.214Z,13.23
2017-10-16T03:45:02.637Z,13.27
2017-10-16T03:46:03.081Z,13.27
2017-10-16T03:47:24.663Z,13.27
2017-10-16T03:48:03.924Z,13.23
2017-10-16T03:49:04.387Z,13.25
2017-10-16T03:50:04.794Z,13.19
2017-10-16T03:51:05.223Z,13.27
2017-10-16T03:52:05.654Z,13.13
2017-10-16T03:53:27.247Z,13.15
2017-10-16T03:54:06.513Z,13.25
2017-10-16T03:55:06.939Z,13.22
2017-10-16T03:56:07.371Z,13.18
2017-10-16T03:57:07.806Z,13.18
2017-10-16T03:58:08.236Z,13.13
2017-10-16T03:59:29.818Z,13.25
2017-10-16T04:00:09.093Z,13.18
2017-10-16T04:01:09.541Z,13.15
2017-10-16T04:02:09.960Z,13.13
2017-10-16T04:03:10.383Z,13.16
2017-10-16T04:04:10.831Z,13.16
2017-10-16T04:05:32.406Z,13.15
2017-10-16T04:06:11.685Z,13.12
2017-10-16T04:07:12.111Z,13.09
2017-10-16T04:08:12.547Z,13.20
2017-10-16T04:09:12.973Z,13.16
2017-10-16T04:10:13.397Z,13.12
2017-10-16T04:11:34.999Z,13.04
2017-10-16T04:12:14.264Z,13.15
2017-10-16T04:13:14.685Z,13.09
2017-10-16T04:14:15.118Z,13.01
2017-10-16T04:15:15.545Z,13.05
2017-10-16T04:16:15.980Z,13.05
2017-10-16T04:17:37.576Z,13.04
2017-10-16T04:18:16.841Z,13.11
2017-10-16T04:19:17.274Z,13.04
2017-10-16T04:20:17.702Z,13.05
2017-10-16T04:21:18.130Z,13.01
2017-10-16T04:22:18.561Z,13.03
2017-10-16T04:23:40.149Z,13.01
2017-10-16T04:24:19.423Z,12.97
2017-10-16T04:25:19.870Z,13.00
2017-10-16T04:26:20.279Z,12.94
2017-10-16T04:27:20.712Z,12.97
2017-10-16T04:28:21.140Z,12.94
2017-10-16T04:29:42.767Z,12.94
2017-10-16T04:30:22.000Z,12.98
2017-10-16T04:31:22.433Z,12.97
2017-10-16T04:32:22.873Z,12.95
2017-10-16T04:33:23.293Z,12.95
2017-10-16T04:34:23.722Z,12.95
2017-10-16T04:35:45.311Z,12.91
2017-10-16T04:36:24.585Z,12.98
2017-10-16T04:37:25.014Z,13.01
2017-10-16T04:38:25.439Z,12.93
2017-10-16T04:39:25.869Z,12.95
2017-10-16T04:40:26.302Z,12.95
2017-10-16T04:41:47.893Z,13.00
2017-10-16T04:42:27.162Z,12.98
2017-10-16T04:43:27.596Z,12.95
2017-10-16T04:44:28.025Z,12.95
2017-10-16T04:45:28.450Z,12.90
2017-10-16T04:46:28.890Z,12.97
2017-10-16T04:47:50.473Z,12.97
2017-10-16T04:48:29.741Z,12.95
2017-10-16T04:49:30.178Z,12.97
2017-10-16T04:50:30.602Z,12.91
2017-10-16T04:51:31.042Z,12.95
2017-10-16T04:52:31.468Z,12.95
2017-10-16T04:53:53.056Z,12.94
2017-10-16T04:54:32.323Z,12.98
2017-10-16T04:55:32.748Z,12.93
2017-10-16T04:56:33.193Z,12.91
2017-10-16T04:57:33.612Z,12.86
2017-10-16T04:58:34.051Z,12.94
2017-10-16T04:59:55.636Z,12.90
2017-10-16T05:00:34.900Z,12.94
2017-10-16T05:01:35.341Z,12.90
2017-10-16T05:02:35.762Z,12.91
2017-10-16T05:03:36.196Z,12.98
2017-10-16T05:04:36.624Z,12.91
2017-10-16T05:05:58.297Z,12.94
2017-10-16T05:06:37.489Z,12.97
2017-10-16T05:07:37.909Z,12.91
2017-10-16T05:08:38.340Z,12.95
2017-10-16T05:09:38.777Z,12.91
2017-10-16T05:10:39.201Z,12.91
2017-10-16T05:12:00.788Z,12.93
2017-10-16T05:12:40.062Z,12.86
2017-10-16T05:13:40.510Z,12.86
2017-10-16T05:14:40.951Z,12.90
2017-10-16T05:15:41.349Z,12.83
2017-10-16T05:16:41.790Z,12.87
2017-10-16T05:18:03.369Z,12.83
2017-10-16T05:18:42.642Z,12.83
2017-10-16T05:19:43.072Z,12.83
2017-10-16T05:20:43.511Z,12.87
2017-10-16T05:21:43.934Z,12.86
2017-10-16T05:22:44.355Z,12.76
2017-10-16T05:24:05.960Z,12.87
2017-10-16T05:24:45.223Z,12.86
2017-10-16T05:25:45.649Z,12.85
2017-10-16T05:26:46.089Z,12.87
2017-10-16T05:27:46.510Z,12.94
2017-10-16T05:28:46.947Z,12.85
2017-10-16T05:30:08.533Z,12.85
2017-10-16T05:30:47.820Z,12.87
2017-10-16T05:31:48.232Z,12.93
2017-10-16T05:32:48.666Z,12.98
2017-10-16T05:33:49.104Z,12.93
2017-10-16T05:34:49.523Z,12.91
2017-10-16T05:36:11.109Z,12.90
2017-10-16T05:36:50.383Z,12.83
2017-10-16T05:37:50.809Z,12.87
2017-10-16T05:38:51.239Z,12.90
2017-10-16T05:39:51.677Z,12.94
2017-10-16T05:40:52.100Z,12.93
2017-10-16T05:42:13.690Z,12.95
2017-10-16T05:42:52.963Z,12.98
2017-10-16T05:43:53.392Z,12.94
2017-10-16T05:44:53.820Z,12.90
2017-10-16T05:45:54.250Z,12.97
2017-10-16T05:46:54.676Z,13.01
2017-10-16T05:48:16.264Z,13.01
2017-10-16T05:48:55.551Z,13.03
2017-10-16T05:49:55.965Z,13.05
2017-10-16T05:50:56.396Z,13.09
2017-10-16T05:51:56.831Z,13.13
2017-10-16T05:52:57.274Z,13.05
2017-10-16T05:54:18.850Z,13.04
2017-10-16T05:54:58.127Z,13.05
2017-10-16T05:55:58.547Z,13.08
2017-10-16T05:56:58.981Z,13.12
2017-10-16T05:57:59.416Z,13.03
2017-10-16T05:58:59.842Z,13.13
2017-10-16T06:00:21.434Z,13.15
2017-10-16T06:01:00.707Z,13.16
2017-10-16T06:02:01.142Z,13.15
2017-10-16T06:03:01.561Z,13.13
2017-10-16T06:04:02.006Z,13.13
2017-10-16T06:05:02.426Z,13.19
2017-10-16T06:06:24.007Z,13.19
2017-10-16T06:08:36.354Z,13.37
2017-10-16T06:09:36.771Z,13.13
2017-10-16T06:11:31.325Z,13.20
2017-10-16T06:12:31.764Z,13.28
2017-10-16T06:14:26.337Z,13.35
2017-10-16T06:15:26.758Z,13.39
2017-10-16T06:17:21.306Z,13.49
2017-10-16T06:18:21.745Z,13.38
2017-10-16T06:20:17.297Z,13.50
2017-10-16T06:21:17.717Z,13.49
2017-10-16T06:23:12.293Z,13.49
2017-10-16T06:24:12.714Z,13.59
2017-10-16T06:26:07.271Z,13.60
2017-10-16T06:27:07.736Z,13.60
2017-10-16T06:29:02.333Z,13.65
2017-10-16T06:30:02.740Z,13.59
2017-10-16T06:31:57.273Z,13.54
2017-10-16T06:32:57.716Z,13.56
2017-10-16T06:34:52.312Z,13.67
2017-10-16T06:35:52.706Z,13.63
2017-10-16T06:37:47.256Z,13.60
2017-10-16T06:38:47.702Z,13.57
2017-10-16T06:40:42.287Z,13.65
2017-10-16T06:41:42.688Z,13.62
2017-10-16T06:43:37.252Z,13.74
2017-10-16T06:44:37.678Z,13.70
2017-10-16T06:46:32.302Z,13.86
2017-10-16T06:47:32.681Z,13.78
2017-10-16T06:49:27.238Z,13.93
2017-10-16T06:50:27.689Z,13.87
2017-10-16T06:52:22.281Z,13.92
2017-10-16T06:53:22.674Z,14.12
2017-10-16T06:55:17.276Z,14.15
2017-10-16T06:56:17.697Z,14.14
2017-10-16T06:58:12.249Z,14.18
2017-10-16T06:59:12.673Z,14.05
2017-10-16T07:01:07.292Z,14.26
2017-10-16T07:02:07.676Z,14.32
2017-10-16T07:04:02.258Z,14.33
2017-10-16T07:05:02.705Z,14.40
2017-10-16T07:06:57.330Z,14.36
2017-10-16T07:07:57.712Z,14.37
2017-10-16T07:09:52.245Z,14.51
2017-10-16T07:10:52.681Z,14.47
2017-10-16T07:12:51.454Z,14.58
2017-10-16T07:13:51.867Z,14.55
2017-10-16T07:14:52.277Z,14.47
2017-10-16T07:15:52.704Z,14.55
2017-10-16T07:16:53.148Z,14.54
2017-10-16T07:17:53.580Z,14.62
2017-10-16T07:18:54.005Z,14.73
2017-10-16T07:19:54.432Z,14.81
2017-10-16T07:20:54.872Z,14.78
2017-10-16T07:21:55.308Z,14.81
2017-10-16T07:22:55.736Z,14.86
2017-10-16T07:23:56.182Z,14.91
2017-10-16T07:24:56.595Z,14.84
2017-10-16T07:25:57.027Z,14.91
2017-10-16T07:26:57.465Z,15.03
2017-10-16T07:27:57.891Z,15.03
2017-10-16T07:28:58.390Z,14.99
2017-10-16T07:29:58.760Z,15.03
2017-10-16T07:30:59.199Z,14.97
2017-10-16T07:31:59.628Z,15.14
2017-10-16T07:33:00.053Z,15.09
2017-10-16T07:34:00.491Z,15.03
2017-10-16T07:35:00.922Z,15.19
2017-10-16T07:36:01.355Z,15.22
2017-10-16T07:37:01.786Z,15.14
2017-10-16T07:38:02.221Z,15.22
2017-10-16T07:39:02.651Z,15.21
2017-10-16T07:40:03.087Z,15.29
2017-10-16T07:41:03.522Z,15.35
2017-10-16T07:42:03.949Z,15.25
2017-10-16T07:43:04.392Z,15.35
2017-10-16T07:44:04.816Z,15.42
2017-10-16T07:45:05.247Z,15.49
2017-10-16T07:46:05.685Z,15.46
2017-10-16T07:47:06.125Z,15.46
2017-10-16T07:48:06.549Z,15.44
2017-10-16T07:49:06.982Z,15.52
2017-10-16T07:50:07.415Z,15.64
2017-10-16T07:51:07.850Z,15.59
2017-10-16T07:52:08.283Z,15.70
2017-10-16T07:53:08.717Z,15.82
2017-10-16T07:54:09.150Z,15.73
2017-10-16T07:55:09.585Z,15.80
2017-10-16T07:56:10.021Z,15.94
2017-10-16T07:57:10.450Z,15.94
2017-10-16T07:58:10.886Z,15.97
2017-10-16T07:59:11.321Z,16.04
2017-10-16T08:00:11.753Z,16.02
2017-10-16T08:01:12.186Z,16.00
2017-10-16T08:02:12.622Z,15.97
2017-10-16T08:03:13.056Z,15.97
2017-10-16T08:04:13.494Z,16.15
2017-10-16T08:05:13.929Z,16.17
2017-10-16T08:06:14.359Z,16.21
2017-10-16T08:07:14.798Z,16.31
2017-10-16T08:08:15.229Z,16.47
2017-10-16T08:09:15.669Z,16.43
2017-10-16T08:10:16.098Z,16.33
2017-10-16T08:11:16.532Z,16.51
2017-10-16T08:12:16.969Z,16.53
2017-10-16T08:13:17.403Z,16.29
2017-10-16T08:14:17.840Z,16.49
2017-10-16T08:15:18.279Z,16.58
2017-10-16T08:16:18.709Z,16.87
2017-10-16T08:17:19.144Z,16.68
2017-10-16T08:18:19.584Z,16.65
2017-10-16T08:19:20.027Z,16.75
2017-10-16T08:20:20.456Z,16.89
2017-10-16T08:21:20.888Z,16.96
2017-10-16T08:22:21.327Z,17.08
2017-10-16T08:23:21.767Z,17.49
2017-10-16T08:24:22.199Z,18.13
2017-10-16T08:25:22.641Z,18.75
2017-10-16T08:26:23.071Z,19.59
2017-10-16T08:27:23.510Z,20.04
2017-10-16T08:28:23.955Z,20.06
2017-10-16T08:29:24.391Z,21.02
2017-10-16T08:30:24.833Z,20.21
2017-10-16T08:31:25.274Z,21.30
2017-10-16T08:32:25.760Z,22.28
2017-10-16T08:33:26.158Z,21.82
2017-10-16T08:34:26.603Z,21.58
2017-10-16T08:35:27.047Z,21.61
2017-10-16T08:36:27.493Z,22.35
2017-10-16T08:37:27.935Z,22.91
2017-10-16T08:38:28.387Z,24.28
2017-10-16T08:39:30.532Z,23.41
2017-10-16T08:40:29.280Z,23.43
2017-10-16T08:41:29.728Z,23.83
2017-10-16T08:42:30.177Z,25.14
2017-10-16T08:43:30.629Z,24.98
2017-10-16T08:44:31.080Z,24.93
2017-10-16T08:45:31.528Z,25.78
2017-10-16T08:46:31.982Z,26.18
2017-10-16T08:47:32.435Z,26.36
2017-10-16T08:48:32.887Z,26.47
2017-10-16T08:49:33.342Z,27.36
2017-10-16T08:50:33.795Z,26.85
2017-10-16T08:51:34.249Z,25.83
2017-10-16T08:52:34.700Z,27.20
2017-10-16T08:53:35.160Z,27.85
2017-10-16T08:54:35.616Z,28.38
2017-10-16T08:55:36.068Z,29.05
2017-10-16T08:56:36.525Z,29.29
2017-10-16T08:57:36.977Z,26.53
2017-10-16T08:58:37.439Z,26.84
2017-10-16T08:59:37.892Z,25.93
2017-10-16T09:00:38.352Z,27.68
2017-10-16T09:01:38.818Z,28.64
2017-10-16T09:02:39.265Z,25.75
2017-10-16T09:03:39.727Z,26.38
2017-10-16T09:04:40.182Z,25.91
2017-10-16T09:05:40.649Z,26.00
2017-10-16T09:06:41.099Z,27.25
2017-10-16T09:07:41.565Z,27.54
2017-10-16T09:08:42.022Z,27.80
2017-10-16T09:09:42.475Z,28.59
2017-10-16T09:10:42.933Z,29.17
2017-10-16T09:11:43.393Z,29.57
2017-10-16T09:12:43.853Z,28.35
2017-10-16T09:13:44.311Z,26.65
2017-10-16T09:14:44.767Z,27.29
2017-10-16T09:15:45.229Z,27.93
2017-10-16T09:16:45.689Z,26.19
2017-10-16T09:17:46.151Z,26.52
2017-10-16T09:18:46.608Z,27.40
2017-10-16T09:19:47.078Z,27.58
2017-10-16T09:20:47.526Z,27.85
2017-10-16T09:21:47.988Z,27.82
2017-10-16T09:22:48.457Z,28.60
2017-10-16T09:23:48.908Z,29.05
2017-10-16T09:24:49.368Z,28.86
2017-10-16T09:25:49.828Z,29.39
2017-10-16T09:26:50.282Z,28.66
2017-10-16T09:27:50.747Z,29.63
2017-10-16T09:28:51.216Z,29.36
2017-10-16T09:29:51.665Z,29.53
2017-10-16T09:30:52.123Z,29.75
2017-10-16T09:31:52.587Z,28.72
2017-10-16T09:32:53.045Z,28.23
2017-10-16T09:33:53.504Z,26.71
2017-10-16T09:34:53.966Z,26.03
2017-10-16T09:35:54.421Z,27.03
2017-10-16T09:36:54.883Z,27.71
2017-10-16T09:37:55.342Z,28.63
2017-10-16T09:38:55.800Z,29.05
2017-10-16T09:39:56.261Z,27.58
2017-10-16T09:40:56.721Z,27.27
2017-10-16T09:41:57.198Z,28.41
2017-10-16T09:42:57.644Z,29.22
2017-10-16T09:43:58.103Z,29.82
2017-10-16T09:44:58.567Z,30.18
2017-10-16T09:45:59.022Z,29.75
2017-10-16T09:46:59.482Z,29.95
2017-10-16T09:47:59.943Z,29.82
2017-10-16T09:49:00.409Z,29.73
2017-10-16T09:50:00.866Z,29.07
2017-10-16T09:51:01.326Z,27.87
2017-10-16T09:52:01.784Z,29.23
2017-10-16T09:53:02.253Z,30.08
2017-10-16T09:54:02.704Z,30.70
2017-10-16T09:55:03.163Z,30.30
2017-10-16T09:56:03.633Z,30.59
2017-10-16T09:57:04.097Z,30.32
2017-10-16T09:58:04.548Z,30.81
2017-10-16T09:59:05.009Z,30.35
2017-10-16T10:00:05.472Z,30.02
2017-10-16T10:01:05.931Z,30.03
2017-10-16T10:02:06.395Z,29.35
2017-10-16T10:03:22.598Z,28.47
2017-10-16T10:04:07.313Z,27.54
2017-10-16T10:05:07.774Z,26.22
2017-10-16T10:06:08.240Z,27.83
2017-10-16T10:07:08.697Z,29.44
2017-10-16T10:08:09.158Z,30.24
2017-10-16T10:09:09.621Z,29.20
2017-10-16T10:10:10.082Z,28.52
2017-10-16T10:11:10.545Z,30.19
2017-10-16T10:12:11.008Z,30.78
2017-10-16T10:13:11.471Z,31.69
2017-10-16T10:14:11.934Z,32.07
2017-10-16T10:15:12.396Z,28.97
2017-10-16T10:16:12.862Z,29.94
2017-10-16T10:17:13.333Z,30.32
2017-10-16T10:18:13.788Z,28.39
2017-10-16T10:19:14.256Z,27.51
2017-10-16T10:20:14.719Z,27.37
2017-10-16T10:21:15.185Z,28.26
2017-10-16T10:22:15.646Z,27.49
2017-10-16T10:23:16.110Z,27.68
2017-10-16T10:24:16.576Z,29.42
2017-10-16T10:25:17.039Z,29.65
2017-10-16T10:26:17.504Z,29.01
2017-10-16T10:27:17.968Z,29.16
2017-10-16T10:28:18.469Z,29.90
2017-10-16T10:29:18.901Z,30.34
2017-10-16T10:30:19.368Z,30.85
2017-10-16T10:31:19.837Z,30.54
2017-10-16T10:32:20.300Z,31.69
2017-10-16T10:33:20.762Z,32.14
2017-10-16T10:34:21.224Z,31.64
2017-10-16T10:35:21.691Z,30.73
2017-10-16T10:36:22.161Z,31.06
2017-10-16T10:37:22.626Z,29.22
2017-10-16T10:38:23.089Z,30.87
2017-10-16T10:39:23.554Z,31.71
2017-10-16T10:40:24.020Z,29.02
2017-10-16T10:41:24.486Z,29.73
2017-10-16T10:42:24.953Z,29.91
2017-10-16T10:43:25.419Z,31.31
2017-10-16T10:44:25.885Z,31.96
2017-10-16T10:45:26.352Z,32.59
2017-10-16T10:46:26.818Z,31.05
2017-10-16T10:47:27.281Z,27.83
2017-10-16T10:48:27.748Z,27.93
2017-10-16T10:49:28.214Z,27.14
2017-10-16T10:50:28.681Z,27.18
2017-10-16T10:51:29.146Z,26.77
2017-10-16T10:52:29.618Z,28.17
2017-10-16T10:53:30.077Z,28.56
2017-10-16T10:54:30.541Z,29.75
2017-10-16T10:55:31.008Z,30.32
2017-10-16T10:56:31.476Z,30.92
2017-10-16T10:57:31.946Z,30.69
2017-10-16T10:58:32.414Z,31.56
2017-10-16T10:59:32.870Z,32.18
2017-10-16T11:00:33.335Z,32.89
2017-10-16T11:01:33.801Z,30.59
2017-10-16T11:02:34.273Z,31.78
2017-10-16T11:03:34.736Z,30.16
2017-10-16T11:04:35.200Z,28.66
2017-10-16T11:05:35.666Z,29.13
2017-10-16T11:06:36.132Z,28.85
2017-10-16T11:07:36.605Z,28.32
2017-10-16T11:08:37.071Z,30.12
2017-10-16T11:09:37.534Z,30.81
2017-10-16T11:10:37.994Z,30.55
2017-10-16T11:11:38.462Z,28.33
2017-10-16T11:12:38.929Z,30.19
2017-10-16T11:13:39.395Z,31.06
2017-10-16T11:14:39.859Z,30.06
2017-10-16T11:15:40.325Z,29.81
2017-10-16T11:16:40.787Z,29.95
2017-10-16T11:17:41.254Z,29.41
2017-10-16T11:18:41.723Z,30.19
2017-10-16T11:19:42.185Z,28.97
2017-10-16T11:20:42.648Z,28.64
2017-10-16T11:21:43.113Z,28.91
2017-10-16T11:22:43.646Z,30.06
2017-10-16T11:23:44.044Z,28.39
2017-10-16T11:24:44.506Z,27.33
2017-10-16T11:25:44.975Z,26.73
2017-10-16T11:26:45.435Z,27.68
2017-10-16T11:27:45.930Z,27.92
2017-10-16T11:28:46.363Z,27.18
2017-10-16T11:29:46.825Z,25.91
2017-10-16T11:30:47.287Z,25.95
2017-10-16T11:31:47.746Z,25.35
2017-10-16T11:32:48.209Z,25.98
2017-10-16T11:33:48.663Z,25.29
2017-10-16T11:34:49.138Z,24.88
2017-10-16T11:35:49.576Z,25.50
2017-10-16T11:36:50.032Z,25.18
2017-10-16T11:37:50.487Z,25.25
2017-10-16T11:38:51.006Z,25.44
2017-10-16T11:39:51.397Z,25.35
2017-10-16T11:40:51.850Z,25.26
2017-10-16T11:41:52.305Z,25.23
2017-10-16T11:42:52.755Z,25.21
2017-10-16T11:43:53.216Z,24.91
2017-10-16T11:44:53.663Z,24.60
2017-10-16T11:45:54.116Z,24.57
2017-10-16T11:46:54.568Z,24.51
2017-10-16T11:47:55.019Z,24.48
2017-10-16T11:48:55.468Z,24.36
2017-10-16T11:49:55.921Z,24.32
2017-10-16T11:50:56.366Z,24.33
2017-10-16T11:51:56.818Z,23.86
2017-10-16T11:52:57.265Z,24.10
2017-10-16T11:53:57.714Z,23.99
2017-10-16T11:54:58.161Z,23.92
2017-10-16T11:55:58.611Z,23.80
2017-10-16T11:56:59.063Z,23.80
2017-10-16T11:57:59.506Z,23.76
2017-10-16T11:58:59.953Z,23.81
2017-10-16T12:00:00.400Z,23.62
2017-10-16T12:01:00.847Z,23.46
2017-10-16T12:02:01.295Z,23.50
2017-10-16T12:03:01.743Z,23.28
2017-10-16T12:04:02.186Z,22.87
2017-10-16T12:05:02.639Z,23.06
2017-10-16T12:06:03.087Z,23.10
2017-10-16T12:07:03.527Z,22.94
2017-10-16T12:08:03.971Z,23.17
2017-10-16T12:09:04.418Z,23.17
2017-10-16T12:10:04.863Z,23.25
2017-10-16T12:11:05.311Z,23.40
2017-10-16T12:12:05.757Z,23.41
2017-10-16T12:13:06.202Z,23.55
2017-10-16T12:14:06.648Z,23.54
2017-10-16T12:15:07.091Z,23.58
2017-10-16T12:16:07.542Z,23.40
2017-10-16T12:17:07.983Z,23.48
2017-10-16T12:18:08.427Z,23.46
2017-10-16T12:19:08.878Z,23.41
2017-10-16T12:20:09.325Z,23.50
2017-10-16T12:21:09.760Z,23.43
2017-10-16T12:22:10.207Z,23.27
2017-10-16T12:23:10.650Z,23.34
2017-10-16T12:24:11.130Z,23.20
2017-10-16T12:25:11.543Z,23.08
2017-10-16T12:26:11.984Z,23.18
2017-10-16T12:27:12.430Z,23.27
2017-10-16T12:28:12.878Z,23.40
2017-10-16T12:29:13.319Z,23.51
2017-10-16T12:30:13.813Z,23.54
2017-10-16T12:31:14.214Z,23.58
2017-10-16T12:32:14.651Z,23.61
2017-10-16T12:33:15.145Z,23.50
2017-10-16T12:34:15.543Z,23.51
2017-10-16T12:35:15.984Z,23.27
2017-10-16T12:36:16.445Z,23.28
2017-10-16T12:37:16.883Z,23.47
2017-10-16T12:38:17.318Z,23.50
2017-10-16T12:39:17.765Z,23.51
2017-10-16T12:40:18.207Z,23.59
2017-10-16T12:41:18.652Z,23.48
2017-10-16T12:42:19.098Z,23.58
2017-10-16T12:43:19.544Z,23.40
2017-10-16T12:44:19.983Z,23.50
2017-10-16T12:45:20.434Z,23.58
2017-10-16T12:46:20.874Z,23.62
2017-10-16T12:47:21.316Z,23.74
2017-10-16T12:48:21.761Z,23.78
2017-10-16T12:49:22.204Z,23.87
2017-10-16T12:50:22.650Z,23.91
2017-10-16T12:51:23.097Z,23.80
2017-10-16T12:52:23.540Z,23.91
2017-10-16T12:53:23.988Z,23.91
2017-10-16T12:54:24.430Z,23.93
2017-10-16T12:55:24.871Z,23.91
2017-10-16T12:56:25.321Z,23.93
2017-10-16T12:57:25.764Z,23.81
2017-10-16T12:58:26.218Z,23.74
2017-10-16T12:59:26.657Z,23.78
2017-10-16T13:00:27.101Z,23.93
2017-10-16T13:01:27.541Z,23.84
2017-10-16T13:02:27.987Z,23.88
2017-10-16T13:03:28.432Z,23.84
2017-10-16T13:04:28.880Z,23.93
2017-10-16T13:05:29.325Z,23.93
2017-10-16T13:06:29.766Z,23.88
2017-10-16T13:07:30.209Z,23.91
2017-10-16T13:08:30.664Z,24.01
2017-10-16T13:09:31.107Z,24.03
2017-10-16T13:10:31.545Z,23.91
2017-10-16T13:11:31.992Z,23.91
2017-10-16T13:12:32.436Z,23.93
2017-10-16T13:13:32.880Z,23.98
2017-10-16T13:14:33.335Z,23.98
2017-10-16T13:15:33.776Z,23.98
2017-10-16T13:16:34.214Z,23.95
2017-10-16T13:17:34.658Z,23.84
2017-10-16T13:18:35.106Z,23.91
2017-10-16T13:19:35.558Z,23.91